createdAt,value
2022-12-03T00:00:17.723Z,1.67
2022-12-03T00:02:44.150Z,1.69
2022-12-03T00:05:11.114Z,1.71
2022-12-03T00:07:37.914Z,1.58
2022-12-03T00:10:06.030Z,1.78
2022-12-03T00:12:32.415Z,1.48
2022-12-03T00:14:58.796Z,1.55
2022-12-03T00:17:25.608Z,1.60
2022-12-03T00:19:51.933Z,1.64
2022-12-03T00:22:18.242Z,1.61
2022-12-03T00:24:44.983Z,1.40
2022-12-03T00:27:11.287Z,1.71
2022-12-03T00:29:37.600Z,1.75
2022-12-03T00:32:04.477Z,1.66
2022-12-03T00:34:31.088Z,1.57
2022-12-03T00:36:57.413Z,1.68
2022-12-03T00:39:24.338Z,1.62
2022-12-03T00:41:50.681Z,1.63
2022-12-03T00:44:17.023Z,1.61
2022-12-03T00:46:43.847Z,1.63
2022-12-03T00:49:10.197Z,1.62
2022-12-03T00:51:36.577Z,1.59
2022-12-03T00:54:03.426Z,1.62
2022-12-03T00:56:29.765Z,1.69
2022-12-03T00:58:56.472Z,1.59
2022-12-03T01:01:22.864Z,1.60
2022-12-03T01:03:49.221Z,1.68
2022-12-03T01:06:15.562Z,1.55
2022-12-03T01:08:41.896Z,1.59
2022-12-03T01:11:28.689Z,1.81
2022-12-03T01:13:54.998Z,1.76
2022-12-03T01:16:21.389Z,1.72
2022-12-03T01:18:48.185Z,1.71
2022-12-03T01:21:14.524Z,1.64
2022-12-03T01:23:40.825Z,1.62
2022-12-03T01:26:07.546Z,1.72
2022-12-03T01:28:34.254Z,1.89
2022-12-03T01:31:19.669Z,1.93
2022-12-03T01:33:46.059Z,1.70
2022-12-03T01:36:12.441Z,1.66
2022-12-03T01:38:39.150Z,1.38
2022-12-03T01:41:08.622Z,1.55
2022-12-03T01:43:38.345Z,1.70
2022-12-03T01:46:04.930Z,1.76
2022-12-03T01:48:35.617Z,1.85
2022-12-03T01:51:02.542Z,1.71
2022-12-03T01:53:28.984Z,1.85
2022-12-03T01:55:55.472Z,1.78
2022-12-03T01:58:27.649Z,1.68
2022-12-03T02:00:54.090Z,1.92
2022-12-03T02:03:25.997Z,1.91
2022-12-03T02:05:53.310Z,1.80
2022-12-03T02:08:36.934Z,1.75
2022-12-03T02:11:29.371Z,1.75
2022-12-03T02:14:01.071Z,1.94
2022-12-03T02:16:28.606Z,1.74
2022-12-03T02:18:56.487Z,1.84
2022-12-03T02:21:54.623Z,1.84
2022-12-03T02:24:55.622Z,1.58
2022-12-03T02:27:22.961Z,1.55
2022-12-03T02:29:49.285Z,1.58
2022-12-03T02:32:15.674Z,1.68
2022-12-03T02:34:45.861Z,1.80
2022-12-03T02:37:35.554Z,1.90
2022-12-03T02:40:12.543Z,1.73
2022-12-03T02:42:39.636Z,1.75
2022-12-03T02:45:08.209Z,1.78
2022-12-03T02:48:07.355Z,1.71
2022-12-03T02:50:37.741Z,1.77
2022-12-03T02:53:09.255Z,1.83
2022-12-03T02:55:37.492Z,1.79
2022-12-03T02:58:05.061Z,1.84
2022-12-03T03:00:32.590Z,1.85
2022-12-03T03:03:00.076Z,2.03
2022-12-03T03:05:26.864Z,1.94
2022-12-03T03:07:53.322Z,1.69
2022-12-03T03:10:23.108Z,1.63
2022-12-03T03:12:52.315Z,1.67
2022-12-03T03:15:19.255Z,1.58
2022-12-03T03:17:45.662Z,1.58
2022-12-03T03:20:12.849Z,1.62
2022-12-03T03:22:41.814Z,1.76
2022-12-03T03:25:15.669Z,1.68
2022-12-03T03:27:43.456Z,1.78
2022-12-03T03:30:10.566Z,1.75
2022-12-03T03:32:39.113Z,1.59
2022-12-03T03:35:07.004Z,1.60
2022-12-03T03:37:33.623Z,1.75
2022-12-03T03:40:00.076Z,1.55
2022-12-03T03:42:27.030Z,1.71
2022-12-03T03:44:53.766Z,1.64
2022-12-03T03:47:20.412Z,1.70
2022-12-03T03:49:49.788Z,1.58
2022-12-03T03:52:17.187Z,1.64
2022-12-03T03:54:43.665Z,1.60
2022-12-03T03:57:10.423Z,1.65
2022-12-03T03:59:36.851Z,1.69
2022-12-03T04:02:03.500Z,1.65
2022-12-03T04:04:36.888Z,1.47
2022-12-03T04:07:03.369Z,1.40
2022-12-03T04:09:29.686Z,1.39
2022-12-03T04:12:14.922Z,1.42
2022-12-03T04:14:41.243Z,1.38
2022-12-03T04:17:07.569Z,1.47
2022-12-03T04:19:34.298Z,1.40
2022-12-03T04:22:19.041Z,1.20
2022-12-03T04:24:45.715Z,1.35
2022-12-03T04:27:31.134Z,1.34
2022-12-03T04:29:57.458Z,1.35
2022-12-03T04:32:42.550Z,1.17
2022-12-03T04:35:28.506Z,1.30
2022-12-03T04:37:55.394Z,1.28
2022-12-03T04:40:40.154Z,1.19
2022-12-03T04:43:06.948Z,1.21
2022-12-03T04:45:33.307Z,1.47
2022-12-03T04:47:59.717Z,1.22
2022-12-03T04:50:26.411Z,1.15
2022-12-03T04:52:52.729Z,1.04
2022-12-03T04:55:19.094Z,1.22
2022-12-03T04:57:45.758Z,1.15
2022-12-03T05:00:12.834Z,1.09
2022-12-03T05:02:39.754Z,1.16
2022-12-03T05:05:06.622Z,1.02
2022-12-03T05:07:33.450Z,0.86
2022-12-03T05:09:59.874Z,0.90
2022-12-03T05:12:26.212Z,0.80
2022-12-03T05:14:53.277Z,0.87
2022-12-03T05:17:19.856Z,0.97
2022-12-03T05:20:05.001Z,0.95
2022-12-03T05:22:31.331Z,0.95
2022-12-03T05:24:57.820Z,0.84
2022-12-03T05:27:24.775Z,0.70
2022-12-03T05:29:51.592Z,0.68
2022-12-03T05:32:17.994Z,0.77
2022-12-03T05:34:44.642Z,0.67
2022-12-03T05:37:11.403Z,0.74
2022-12-03T05:39:37.771Z,0.60
2022-12-03T05:42:23.812Z,0.57
2022-12-03T05:44:50.656Z,0.62
2022-12-03T05:47:16.980Z,0.71
2022-12-03T05:49:43.883Z,0.78
2022-12-03T05:52:10.345Z,0.83
2022-12-03T05:54:36.748Z,0.77
2022-12-03T05:57:03.672Z,0.52
2022-12-03T05:59:30.027Z,0.51
2022-12-03T06:01:56.411Z,0.38
2022-12-03T06:04:23.062Z,0.43
2022-12-03T06:06:49.384Z,0.43
2022-12-03T06:09:15.895Z,0.45
2022-12-03T06:11:42.201Z,0.29
2022-12-03T06:14:08.833Z,0.35
2022-12-03T06:16:35.526Z,0.38
2022-12-03T06:19:01.892Z,0.51
2022-12-03T06:21:28.220Z,0.41
2022-12-03T06:23:55.017Z,0.47
2022-12-03T06:26:21.417Z,0.51
2022-12-03T06:28:49.230Z,0.44
2022-12-03T06:31:16.611Z,0.49
2022-12-03T06:33:42.951Z,0.51
2022-12-03T06:36:09.397Z,0.50
2022-12-03T06:38:36.125Z,0.49
2022-12-03T06:41:02.824Z,0.55
2022-12-03T06:43:30.812Z,0.38
2022-12-03T06:45:57.438Z,0.35
2022-12-03T06:48:23.783Z,0.37
2022-12-03T06:50:50.114Z,0.51
2022-12-03T06:53:16.801Z,0.58
2022-12-03T06:55:43.204Z,0.25
2022-12-03T06:58:09.511Z,0.16
2022-12-03T07:00:36.246Z,0.37
2022-12-03T07:03:02.648Z,0.22
2022-12-03T07:05:28.985Z,0.35
2022-12-03T07:07:55.758Z,0.40
2022-12-03T07:10:22.526Z,0.43
2022-12-03T07:12:48.885Z,0.48
2022-12-03T07:15:15.941Z,0.55
2022-12-03T07:17:42.299Z,0.59
2022-12-03T07:20:10.084Z,0.51
2022-12-03T07:22:36.418Z,0.50
2022-12-03T07:25:02.753Z,0.09
2022-12-03T07:27:29.109Z,0.32
2022-12-03T07:29:55.491Z,0.34
2022-12-03T07:32:21.869Z,0.28
2022-12-03T07:34:48.607Z,0.33
2022-12-03T07:37:18.624Z,0.09
2022-12-03T07:39:47.848Z,0.22
2022-12-03T07:42:14.189Z,0.17
2022-12-03T07:44:40.490Z,0.09
2022-12-03T07:47:06.876Z,0.30
2022-12-03T07:49:33.576Z,0.27
2022-12-03T07:51:59.927Z,0.13
2022-12-03T07:54:27.092Z,0.06
2022-12-03T07:56:58.092Z,0.23
2022-12-03T07:59:28.228Z,0.00
2022-12-03T08:01:55.050Z,0.09
2022-12-03T08:04:22.054Z,0.16
2022-12-03T08:06:49.148Z,0.18
2022-12-03T08:09:16.452Z,0.17
2022-12-03T08:11:49.030Z,0.36
2022-12-03T08:14:19.728Z,0.33
2022-12-03T08:16:47.564Z,0.35
2022-12-03T08:19:16.205Z,0.40
2022-12-03T08:21:43.062Z,0.47
2022-12-03T08:24:20.920Z,0.59
2022-12-03T08:26:48.590Z,0.64
2022-12-03T08:29:19.503Z,0.50
2022-12-03T08:31:52.567Z,0.22
2022-12-03T08:34:22.520Z,0.26
2022-12-03T08:36:58.451Z,0.47
2022-12-03T08:39:30.996Z,0.32
2022-12-03T08:42:23.666Z,0.34
2022-12-03T08:44:49.983Z,0.55
2022-12-03T08:47:20.498Z,-0.05
2022-12-03T08:50:27.410Z,0.20
2022-12-03T08:52:57.706Z,-0.07
2022-12-03T08:55:38.632Z,0.33
2022-12-03T08:58:33.226Z,0.38
2022-12-03T09:01:07.381Z,0.40
2022-12-03T09:03:34.533Z,0.45
2022-12-03T09:06:00.834Z,0.46
2022-12-03T09:08:27.593Z,0.50
2022-12-03T09:10:53.932Z,0.43
2022-12-03T09:13:20.259Z,0.29
2022-12-03T09:15:47.086Z,0.40
2022-12-03T09:18:14.643Z,0.44
2022-12-03T09:20:41.158Z,0.38
2022-12-03T09:23:07.580Z,0.49
2022-12-03T09:25:34.573Z,0.32
2022-12-03T09:28:00.949Z,0.22
2022-12-03T09:30:27.444Z,0.52
2022-12-03T09:32:54.109Z,0.35
2022-12-03T09:35:20.567Z,0.59
2022-12-03T09:37:46.897Z,0.70
2022-12-03T09:40:14.173Z,0.44
2022-12-03T09:42:41.474Z,0.43
2022-12-03T09:45:12.824Z,0.60
2022-12-03T09:47:43.652Z,0.34
2022-12-03T09:50:18.210Z,0.34
2022-12-03T09:52:45.405Z,0.49
2022-12-03T09:55:16.802Z,0.60
2022-12-03T09:57:43.314Z,0.33
2022-12-03T10:00:23.458Z,0.39
2022-12-03T10:02:52.525Z,0.64
2022-12-03T10:05:21.486Z,0.62
2022-12-03T10:07:49.669Z,0.42
2022-12-03T10:10:19.545Z,0.51
2022-12-03T10:12:46.690Z,0.74
2022-12-03T10:15:16.090Z,0.66
2022-12-03T10:17:42.762Z,0.33
2022-12-03T10:20:17.566Z,0.38
2022-12-03T10:22:43.978Z,0.72
2022-12-03T10:25:16.041Z,0.90
2022-12-03T10:27:43.400Z,0.98
2022-12-03T10:30:19.731Z,0.75
2022-12-03T10:32:49.268Z,0.63
2022-12-03T10:35:22.952Z,0.49
2022-12-03T10:38:03.640Z,0.35
2022-12-03T10:40:33.217Z,0.35
2022-12-03T10:43:16.283Z,0.63
2022-12-03T10:45:44.352Z,0.65
2022-12-03T10:48:18.248Z,0.55
2022-12-03T10:51:04.538Z,0.51
2022-12-03T10:53:36.790Z,0.09
2022-12-03T10:56:06.557Z,0.13
2022-12-03T10:58:38.881Z,0.24
2022-12-03T11:01:16.438Z,0.24
2022-12-03T11:03:43.435Z,0.07
2022-12-03T11:06:22.154Z,0.39
2022-12-03T11:08:57.601Z,0.45
2022-12-03T11:11:29.289Z,0.32
2022-12-03T11:14:00.691Z,0.13
2022-12-03T11:16:39.378Z,0.11
2022-12-03T11:19:13.911Z,0.27
2022-12-03T11:22:05.378Z,0.16
2022-12-03T11:24:33.883Z,0.28
2022-12-03T11:27:00.194Z,0.12
2022-12-03T11:29:59.038Z,0.39
2022-12-03T11:32:43.495Z,0.59
2022-12-03T11:35:25.379Z,0.48
2022-12-03T11:37:52.330Z,0.18
2022-12-03T11:40:18.593Z,0.31
2022-12-03T11:42:46.709Z,0.34
2022-12-03T11:45:23.023Z,0.27
2022-12-03T11:47:58.781Z,0.56
2022-12-03T11:50:28.222Z,0.50
2022-12-03T11:52:56.086Z,0.63
2022-12-03T11:55:36.120Z,0.43
2022-12-03T11:58:06.041Z,0.41
2022-12-03T12:00:32.445Z,0.45
2022-12-03T12:03:00.383Z,0.26
2022-12-03T12:05:35.496Z,0.41
2022-12-03T12:08:03.076Z,0.28
2022-12-03T12:10:47.642Z,0.44
2022-12-03T12:13:28.874Z,0.46
2022-12-03T12:15:55.340Z,0.43
2022-12-03T12:18:40.003Z,0.60
2022-12-03T12:21:44.570Z,0.63
2022-12-03T12:24:45.611Z,0.59
2022-12-03T12:27:22.409Z,0.40
2022-12-03T12:30:00.038Z,0.34
2022-12-03T12:32:50.503Z,0.00
2022-12-03T12:35:24.930Z,0.38
2022-12-03T12:38:21.477Z,0.22
2022-12-03T12:40:50.338Z,0.27
2022-12-03T12:43:28.014Z,0.37
2022-12-03T12:45:56.708Z,0.30
2022-12-03T12:48:33.870Z,0.17
2022-12-03T12:51:09.801Z,0.13
2022-12-03T12:53:37.634Z,0.22
2022-12-03T12:56:11.687Z,0.22
2022-12-03T12:58:37.993Z,0.28
2022-12-03T13:01:11.574Z,0.26
2022-12-03T13:03:39.478Z,0.32
2022-12-03T13:06:06.133Z,0.29
2022-12-03T13:08:42.814Z,0.18
2022-12-03T13:11:24.422Z,0.18
2022-12-03T13:13:52.209Z,0.17
2022-12-03T13:16:32.876Z,0.50
2022-12-03T13:19:01.353Z,0.45
2022-12-03T13:21:39.056Z,0.43
2022-12-03T13:24:39.638Z,0.34
2022-12-03T13:27:18.396Z,0.26
2022-12-03T13:29:46.795Z,0.23
2022-12-03T13:32:20.625Z,0.43
2022-12-03T13:34:50.690Z,0.43
2022-12-03T13:37:28.069Z,0.09
2022-12-03T13:39:57.240Z,0.22
2022-12-03T13:42:45.819Z,0.18
2022-12-03T13:45:25.137Z,0.29
2022-12-03T13:48:00.649Z,0.32
2022-12-03T13:50:37.742Z,0.39
2022-12-03T13:53:26.660Z,0.37
2022-12-03T13:56:18.013Z,0.27
2022-12-03T13:58:44.326Z,0.42
2022-12-03T14:01:10.690Z,0.22
2022-12-03T14:03:37.450Z,0.18
2022-12-03T14:06:03.907Z,0.22
2022-12-03T14:08:30.237Z,0.24
2022-12-03T14:11:00.311Z,0.23
2022-12-03T14:13:27.290Z,0.39
2022-12-03T14:15:54.188Z,0.22
2022-12-03T14:18:20.587Z,0.29
2022-12-03T14:20:48.260Z,0.44
2022-12-03T14:23:16.207Z,0.24
2022-12-03T14:25:43.975Z,0.36
2022-12-03T14:28:10.917Z,0.24
2022-12-03T14:30:37.576Z,0.20
2022-12-03T14:33:04.558Z,0.27
2022-12-03T14:35:31.354Z,0.21
2022-12-03T14:37:57.723Z,0.13
2022-12-03T14:40:24.134Z,-0.05
2022-12-03T14:42:51.021Z,0.18
2022-12-03T14:45:17.425Z,0.38
2022-12-03T14:47:43.802Z,0.19
2022-12-03T14:50:14.597Z,-0.03
2022-12-03T14:52:41.412Z,0.05
2022-12-03T14:55:08.163Z,0.05
2022-12-03T14:57:34.860Z,-0.01
2022-12-03T15:00:01.284Z,0.06
2022-12-03T15:02:28.691Z,0.23
2022-12-03T15:04:55.440Z,0.07
2022-12-03T15:07:39.267Z,-0.06
2022-12-03T15:10:07.909Z,-0.01
2022-12-03T15:12:34.311Z,-0.12
2022-12-03T15:15:00.640Z,-0.12
2022-12-03T15:17:31.665Z,-0.04
2022-12-03T15:19:58.586Z,-0.05
2022-12-03T15:22:25.139Z,-0.28
2022-12-03T15:24:52.230Z,-0.07
2022-12-03T15:27:18.553Z,-0.20
2022-12-03T15:29:45.318Z,-0.35
2022-12-03T15:32:11.635Z,-0.19
2022-12-03T15:34:37.954Z,-0.14
2022-12-03T15:37:04.657Z,-0.46
2022-12-03T15:39:32.859Z,-0.24
2022-12-03T15:41:59.174Z,-0.27
2022-12-03T15:44:26.185Z,-0.23
2022-12-03T15:46:52.501Z,-0.29
2022-12-03T15:49:19.875Z,-0.24
2022-12-03T15:51:46.463Z,-0.18
2022-12-03T15:54:12.791Z,-0.32
2022-12-03T15:56:39.096Z,-0.32
2022-12-03T15:59:05.910Z,-0.17
2022-12-03T16:01:32.829Z,-0.13
2022-12-03T16:03:59.254Z,-0.25
2022-12-03T16:06:25.634Z,-0.39
2022-12-03T16:08:52.347Z,-0.32
2022-12-03T16:11:18.664Z,-0.33
2022-12-03T16:13:45.019Z,-0.08
2022-12-03T16:16:11.821Z,-0.11
2022-12-03T16:18:38.255Z,-0.14
2022-12-03T16:21:04.648Z,-0.23
2022-12-03T16:23:31.322Z,-0.11
2022-12-03T16:25:57.709Z,-0.25
2022-12-03T16:28:24.292Z,-0.15
2022-12-03T16:30:50.881Z,-0.22
2022-12-03T16:33:20.098Z,-0.08
2022-12-03T16:35:49.137Z,-0.10
2022-12-03T16:38:15.448Z,-0.20
2022-12-03T16:40:41.789Z,-0.15
2022-12-03T16:43:09.569Z,-0.21
2022-12-03T16:45:42.414Z,-0.22
2022-12-03T16:48:08.806Z,-0.26
2022-12-03T16:50:37.815Z,-0.56
2022-12-03T16:53:04.179Z,-0.47
2022-12-03T16:55:30.506Z,-0.55
2022-12-03T16:57:57.337Z,-0.23
2022-12-03T17:00:25.708Z,-0.26
2022-12-03T17:02:52.159Z,-0.15
2022-12-03T17:05:18.742Z,-0.05
2022-12-03T17:07:45.129Z,-0.11
2022-12-03T17:10:11.887Z,-0.08
2022-12-03T17:13:07.700Z,-0.04
2022-12-03T17:15:24.952Z,-0.01
2022-12-03T17:17:51.488Z,-0.16
2022-12-03T17:20:18.434Z,-0.16
2022-12-03T17:22:44.801Z,-0.06
2022-12-03T17:25:12.365Z,-0.27
2022-12-03T17:27:44.876Z,-0.12
2022-12-03T17:30:13.100Z,-0.02
2022-12-03T17:32:39.459Z,-0.15
2022-12-03T17:35:06.277Z,-0.10
2022-12-03T17:37:32.614Z,-0.09
2022-12-03T17:39:58.985Z,-0.32
2022-12-03T17:42:26.198Z,-0.26
2022-12-03T17:44:52.807Z,-0.21
2022-12-03T17:47:19.210Z,-0.16
2022-12-03T17:49:45.569Z,-0.13
2022-12-03T17:52:12.226Z,0.04
2022-12-03T17:55:08.589Z,0.03
2022-12-03T17:57:25.265Z,0.07
2022-12-03T17:59:52.092Z,-0.13
2022-12-03T18:02:18.815Z,-0.37
2022-12-03T18:04:45.655Z,-0.21
2022-12-03T18:07:11.969Z,-0.40
2022-12-03T18:09:38.283Z,-0.63
2022-12-03T18:12:05.167Z,-0.57
2022-12-03T18:14:31.519Z,-0.48
2022-12-03T18:16:57.838Z,-0.62
2022-12-03T18:19:24.537Z,-0.63
2022-12-03T18:21:50.899Z,-0.74
2022-12-03T18:24:17.271Z,-0.97
2022-12-03T18:26:43.827Z,-0.56
2022-12-03T18:29:10.139Z,-0.52
2022-12-03T18:31:36.571Z,-0.48
2022-12-03T18:34:03.474Z,-0.40
2022-12-03T18:36:34.233Z,-0.42
2022-12-03T18:39:00.969Z,-0.24
2022-12-03T18:41:28.011Z,-0.41
2022-12-03T18:43:54.768Z,-0.62
2022-12-03T18:49:10.325Z,-0.51
2022-12-03T18:51:37.027Z,-0.59
2022-12-03T18:54:03.629Z,-0.53
2022-12-03T18:56:30.409Z,-0.38
2022-12-03T18:58:56.754Z,-0.43
2022-12-03T19:01:23.142Z,-0.42
2022-12-03T19:03:50.246Z,-0.37
2022-12-03T19:06:20.838Z,-0.40
2022-12-03T19:08:48.720Z,-0.47
2022-12-03T19:11:15.570Z,-0.35
2022-12-03T19:13:42.187Z,-0.32
2022-12-03T19:16:10.482Z,-0.44
2022-12-03T19:18:37.239Z,-0.46
2022-12-03T19:21:08.314Z,-0.53
2022-12-03T19:23:35.823Z,-0.69
2022-12-03T19:26:04.629Z,-0.62
2022-12-03T19:28:31.545Z,-0.49
2022-12-03T19:31:00.281Z,-0.50
2022-12-03T19:33:28.671Z,-0.51
2022-12-03T19:35:56.462Z,-0.50
2022-12-03T19:38:24.059Z,-0.73
2022-12-03T19:41:04.672Z,-0.82
2022-12-03T19:43:34.416Z,-0.79
2022-12-03T19:46:09.855Z,-0.72
2022-12-03T19:48:38.239Z,-0.71
2022-12-03T19:51:32.375Z,-0.79
2022-12-03T19:53:53.962Z,-0.75
2022-12-03T19:56:20.366Z,-0.77
2022-12-03T19:58:47.367Z,-0.75
2022-12-03T20:01:16.867Z,-0.72
2022-12-03T20:03:46.590Z,-0.56
2022-12-03T20:06:14.467Z,-0.62
2022-12-03T20:08:41.367Z,-0.60
2022-12-03T20:11:20.041Z,-0.74
2022-12-03T20:13:48.130Z,-0.67
2022-12-03T20:16:15.691Z,-0.55
2022-12-03T20:18:44.706Z,-0.59
2022-12-03T20:21:12.367Z,-0.63
2022-12-03T20:23:39.228Z,-0.43
2022-12-03T20:26:24.762Z,-0.56
2022-12-03T20:28:53.344Z,-0.42
2022-12-03T20:31:22.309Z,-0.43
2022-12-03T20:33:51.519Z,-0.46
2022-12-03T20:36:21.232Z,-0.53
2022-12-03T20:38:47.619Z,-0.54
2022-12-03T20:41:17.227Z,-0.53
2022-12-03T20:43:43.942Z,-0.56
2022-12-03T20:46:16.944Z,-0.41
2022-12-03T20:48:44.936Z,-0.44
2022-12-03T20:51:20.103Z,-0.27
2022-12-03T20:53:47.681Z,-0.29
2022-12-03T20:56:20.370Z,-0.25
2022-12-03T20:58:49.379Z,-0.37
2022-12-03T21:01:27.345Z,-0.48
2022-12-03T21:03:56.260Z,-0.24
2022-12-03T21:06:25.367Z,-0.25
2022-12-03T21:08:56.922Z,-0.41
2022-12-03T21:11:26.505Z,-0.51
2022-12-03T21:13:54.149Z,-0.51
2022-12-03T21:16:45.604Z,-0.60
2022-12-03T21:19:10.622Z,-0.55
2022-12-03T21:21:36.996Z,-0.71
2022-12-03T21:24:03.447Z,-0.69
2022-12-03T21:26:30.082Z,-0.67
2022-12-03T21:28:56.416Z,-0.70
2022-12-03T21:31:25.670Z,-0.49
2022-12-03T21:33:56.546Z,-0.41
2022-12-03T21:36:23.991Z,-0.62
2022-12-03T21:38:50.717Z,-0.66
2022-12-03T21:41:17.951Z,-0.66
2022-12-03T21:43:44.754Z,-0.46
2022-12-03T21:47:10.720Z,-0.41
2022-12-03T21:49:01.109Z,-0.22
2022-12-03T21:51:27.838Z,-0.14
2022-12-03T21:53:54.163Z,-0.11
2022-12-03T21:56:20.523Z,-0.10
2022-12-03T21:58:47.874Z,-0.22
2022-12-03T22:01:22.995Z,-0.20
2022-12-03T22:03:50.453Z,-0.21
2022-12-03T22:06:18.039Z,-0.20
2022-12-03T22:08:44.809Z,-0.27
2022-12-03T22:11:14.753Z,-0.16
2022-12-03T22:13:41.867Z,-0.29
2022-12-03T22:16:12.254Z,-0.23
2022-12-03T22:18:40.028Z,-0.15
2022-12-03T22:21:08.600Z,-0.21
2022-12-03T22:23:35.462Z,-0.18
2022-12-03T22:26:05.312Z,-0.08
2022-12-03T22:28:32.606Z,-0.28
2022-12-03T22:30:59.326Z,-0.42
2022-12-03T22:33:26.380Z,-0.14
2022-12-03T22:36:00.245Z,-0.09
2022-12-03T22:38:29.131Z,-0.16
2022-12-03T22:40:55.782Z,-0.17
2022-12-03T22:43:22.327Z,-0.05
2022-12-03T22:45:53.333Z,-0.14
2022-12-03T22:48:19.664Z,-0.42
2022-12-03T22:50:47.317Z,-0.52
2022-12-03T22:53:15.170Z,-0.39
2022-12-03T22:55:42.240Z,-0.45
2022-12-03T22:58:09.775Z,-0.42
2022-12-03T23:00:38.890Z,-0.29
2022-12-03T23:03:06.113Z,-0.27
2022-12-03T23:05:38.490Z,-0.23
2022-12-03T23:08:06.954Z,-0.53
2022-12-03T23:10:34.885Z,-0.42
2022-12-03T23:13:02.152Z,-0.48
2022-12-03T23:15:28.984Z,-0.44
2022-12-03T23:17:55.722Z,-0.19
2022-12-03T23:20:22.994Z,-0.39
2022-12-03T23:22:49.950Z,-0.35
2022-12-03T23:25:16.426Z,-0.27
2022-12-03T23:27:44.415Z,-0.38
2022-12-03T23:30:11.579Z,-0.28
2022-12-03T23:32:38.206Z,-0.22
2022-12-03T23:35:05.779Z,-0.51
2022-12-03T23:37:32.169Z,-0.62
2022-12-03T23:39:58.501Z,-0.55
2022-12-03T23:42:25.164Z,-0.54
2022-12-03T23:44:52.073Z,-0.46
2022-12-03T23:47:18.399Z,-0.51
2022-12-03T23:49:44.911Z,-0.59
2022-12-03T23:52:11.450Z,-0.42
2022-12-03T23:54:38.106Z,-0.39
2022-12-03T23:57:04.472Z,-0.32
2022-12-03T23:59:31.371Z,-0.29
